createdAt,value
2023-04-15T00:01:51.876Z,5.87
2023-04-15T00:04:18.507Z,5.89
2023-04-15T00:06:52.944Z,5.91
2023-04-15T00:09:20.288Z,5.94
2023-04-15T00:11:47.158Z,5.98
2023-04-15T00:14:13.838Z,6.00
2023-04-15T00:16:40.334Z,6.02
2023-04-15T00:19:06.883Z,6.06
2023-04-15T00:21:33.440Z,6.08
2023-04-15T00:23:59.938Z,6.11
2023-04-15T00:26:26.408Z,6.13
2023-04-15T00:28:52.868Z,6.15
2023-04-15T00:31:19.396Z,6.17
2023-04-15T00:33:45.942Z,6.20
2023-04-15T00:36:12.465Z,6.21
2023-04-15T00:38:38.963Z,6.23
2023-04-15T00:41:05.459Z,6.25
2023-04-15T00:43:31.970Z,6.27
2023-04-15T00:45:59.502Z,6.28
2023-04-15T00:48:26.689Z,6.29
2023-04-15T00:50:53.148Z,6.31
2023-04-15T00:53:19.632Z,6.33
2023-04-15T00:55:46.083Z,6.34
2023-04-15T00:58:12.632Z,6.36
2023-04-15T01:00:39.115Z,6.37
2023-04-15T01:03:05.800Z,6.39
2023-04-15T01:05:33.179Z,6.43
2023-04-15T01:07:59.867Z,6.45
2023-04-15T01:10:26.382Z,6.48
2023-04-15T01:12:52.885Z,6.46
2023-04-15T01:15:20.380Z,6.43
2023-04-15T01:17:47.080Z,6.41
2023-04-15T01:20:13.648Z,6.42
2023-04-15T01:22:40.818Z,6.43
2023-04-15T01:25:11.652Z,6.43
2023-04-15T01:27:40.244Z,6.45
2023-04-15T01:30:08.173Z,6.48
2023-04-15T01:32:34.796Z,6.52
2023-04-15T01:35:01.326Z,6.53
2023-04-15T01:37:27.876Z,6.54
2023-04-15T01:39:54.358Z,6.56
2023-04-15T01:42:21.846Z,6.60
2023-04-15T01:44:48.321Z,6.61
2023-04-15T01:47:14.764Z,6.61
2023-04-15T01:49:41.260Z,6.63
2023-04-15T01:52:07.718Z,6.64
2023-04-15T01:54:34.229Z,6.66
2023-04-15T01:57:00.726Z,6.68
2023-04-15T01:59:27.205Z,6.71
2023-04-15T02:01:53.732Z,6.75
2023-04-15T02:04:20.214Z,6.77
2023-04-15T02:06:46.665Z,6.79
2023-04-15T02:09:13.150Z,6.81
2023-04-15T02:11:39.638Z,6.81
2023-04-15T02:14:06.082Z,6.80
2023-04-15T02:16:33.312Z,6.82
2023-04-15T02:19:00.654Z,6.83
2023-04-15T02:21:27.602Z,6.85
2023-04-15T02:23:54.250Z,6.87
2023-04-15T02:26:20.794Z,6.87
2023-04-15T02:28:47.405Z,6.88
2023-04-15T02:31:13.901Z,6.87
2023-04-15T02:33:40.434Z,6.86
2023-04-15T02:36:07.103Z,6.86
2023-04-15T02:38:33.720Z,6.86
2023-04-15T02:41:00.216Z,6.89
2023-04-15T02:43:26.718Z,6.90
2023-04-15T02:45:53.152Z,6.93
2023-04-15T02:48:19.721Z,6.95
2023-04-15T02:50:47.050Z,6.97
2023-04-15T02:53:13.847Z,6.98
2023-04-15T02:55:40.598Z,6.99
2023-04-15T02:58:07.143Z,7.00
2023-04-15T03:00:33.751Z,7.02
2023-04-15T03:03:05.407Z,7.02
2023-04-15T03:05:32.234Z,7.02
2023-04-15T03:07:58.712Z,7.01
2023-04-15T03:10:25.197Z,7.01
2023-04-15T03:12:51.693Z,7.02
2023-04-15T03:15:18.179Z,7.03
2023-04-15T03:17:44.674Z,7.03
2023-04-15T03:20:11.273Z,7.04
2023-04-15T03:22:37.815Z,7.03
2023-04-15T03:25:04.624Z,7.01
2023-04-15T03:27:31.086Z,7.00
2023-04-15T03:29:57.556Z,6.99
2023-04-15T03:32:24.454Z,6.98
2023-04-15T03:34:50.967Z,6.97
2023-04-15T03:37:17.401Z,6.98
2023-04-15T03:39:43.846Z,6.98
2023-04-15T03:42:10.280Z,6.98
2023-04-15T03:44:36.786Z,6.98
2023-04-15T03:47:03.380Z,6.98
2023-04-15T03:49:29.898Z,6.98
2023-04-15T03:51:56.358Z,6.97
2023-04-15T03:54:22.908Z,6.96
2023-04-15T03:56:49.390Z,6.96
2023-04-15T03:59:15.875Z,6.96
2023-04-15T04:01:42.374Z,6.95
2023-04-15T04:04:08.993Z,6.96
2023-04-15T04:06:35.519Z,6.95
2023-04-15T04:09:02.186Z,6.97
2023-04-15T04:11:28.933Z,6.96
2023-04-15T04:13:55.405Z,6.96
2023-04-15T04:16:22.097Z,6.96
2023-04-15T04:18:48.662Z,6.97
2023-04-15T04:21:15.242Z,6.98
2023-04-15T04:23:41.746Z,7.00
2023-04-15T04:26:08.255Z,7.02
2023-04-15T04:28:34.750Z,7.03
2023-04-15T04:31:01.268Z,7.06
2023-04-15T04:33:27.783Z,7.10
2023-04-15T04:35:54.249Z,7.15
2023-04-15T04:38:20.675Z,7.18
2023-04-15T04:40:47.432Z,7.21
2023-04-15T04:43:13.944Z,7.24
2023-04-15T04:45:40.529Z,7.28
2023-04-15T04:48:07.177Z,7.31
2023-04-15T04:50:34.453Z,7.35
2023-04-15T04:53:01.454Z,7.40
2023-04-15T04:55:28.287Z,7.45
2023-04-15T04:57:54.848Z,7.48
2023-04-15T05:00:21.409Z,7.49
2023-04-15T05:02:48.211Z,7.51
2023-04-15T05:05:15.021Z,7.49
2023-04-15T05:07:41.638Z,7.47
2023-04-15T05:10:08.679Z,7.42
2023-04-15T05:12:36.001Z,7.37
2023-04-15T05:15:02.509Z,7.35
2023-04-15T05:17:28.995Z,7.33
2023-04-15T05:19:55.517Z,7.35
2023-04-15T05:22:22.019Z,7.41
2023-04-15T05:24:48.499Z,7.47
2023-04-15T05:27:14.958Z,7.54
2023-04-15T05:29:41.442Z,7.65
2023-04-15T05:32:08.062Z,7.80
2023-04-15T05:34:34.663Z,7.96
2023-04-15T05:37:01.206Z,8.10
2023-04-15T05:39:27.854Z,8.24
2023-04-15T05:41:54.416Z,8.38
2023-04-15T05:44:20.898Z,8.50
2023-04-15T05:46:47.366Z,8.57
2023-04-15T05:49:13.847Z,8.64
2023-04-15T05:51:40.298Z,8.68
2023-04-15T05:54:07.230Z,8.65
2023-04-15T05:56:33.766Z,8.65
2023-04-15T05:59:00.382Z,8.74
2023-04-15T06:01:27.552Z,8.84
2023-04-15T06:03:54.185Z,8.87
2023-04-15T06:06:20.741Z,8.90
2023-04-15T06:08:47.229Z,8.95
2023-04-15T06:11:13.795Z,8.98
2023-04-15T06:13:40.297Z,8.98
2023-04-15T06:16:07.142Z,9.10
2023-04-15T06:18:33.667Z,9.24
2023-04-15T06:21:00.227Z,9.33
2023-04-15T06:23:27.996Z,9.42
2023-04-15T06:25:54.591Z,9.57
2023-04-15T06:28:21.092Z,9.72
2023-04-15T06:30:47.646Z,9.88
2023-04-15T06:33:14.125Z,9.97
2023-04-15T06:35:40.606Z,10.07
2023-04-15T06:38:07.058Z,10.14
2023-04-15T06:40:33.718Z,10.21
2023-04-15T06:43:00.379Z,10.34
2023-04-15T06:45:26.859Z,10.48
2023-04-15T06:47:53.458Z,10.53
2023-04-15T06:50:19.979Z,10.50
2023-04-15T06:52:46.485Z,10.45
2023-04-15T06:55:12.956Z,10.43
2023-04-15T06:57:39.394Z,10.35
2023-04-15T07:00:06.541Z,10.33
2023-04-15T07:02:33.425Z,10.36
2023-04-15T07:05:00.041Z,10.41
2023-04-15T07:07:26.507Z,10.48
2023-04-15T07:09:52.959Z,10.54
2023-04-15T07:12:20.161Z,10.58
2023-04-15T07:14:46.689Z,10.62
2023-04-15T07:17:13.455Z,10.68
2023-04-15T07:19:39.966Z,10.71
2023-04-15T07:22:06.495Z,10.75
2023-04-15T07:24:33.203Z,10.79
2023-04-15T07:27:01.105Z,10.89
2023-04-15T07:29:28.064Z,10.96
2023-04-15T07:31:54.648Z,11.05
2023-04-15T07:34:21.183Z,11.14
2023-04-15T07:36:47.904Z,11.27
2023-04-15T07:39:14.393Z,11.46
2023-04-15T07:41:40.994Z,11.59
2023-04-15T07:44:07.523Z,11.68
2023-04-15T07:46:34.201Z,11.82
2023-04-15T07:49:01.096Z,11.90
2023-04-15T07:51:27.804Z,12.06
2023-04-15T07:53:54.262Z,12.29
2023-04-15T07:56:20.773Z,12.43
2023-04-15T07:58:47.256Z,12.48
2023-04-15T08:01:13.734Z,12.53
2023-04-15T08:03:40.429Z,12.59
2023-04-15T08:06:07.024Z,12.66
2023-04-15T08:08:33.554Z,12.76
2023-04-15T08:11:00.171Z,12.76
2023-04-15T08:13:26.719Z,12.78
2023-04-15T08:16:22.195Z,12.77
2023-04-15T08:18:50.007Z,12.71
2023-04-15T08:21:17.945Z,12.71
2023-04-15T08:23:45.180Z,12.69
2023-04-15T08:26:12.198Z,12.74
2023-04-15T08:28:40.552Z,12.86
2023-04-15T08:31:07.568Z,13.00
2023-04-15T08:33:34.067Z,12.96
2023-04-15T08:36:00.604Z,12.80
2023-04-15T08:38:27.234Z,12.78
2023-04-15T08:40:53.723Z,12.77
2023-04-15T08:43:23.508Z,12.84
2023-04-15T08:45:51.030Z,12.89
2023-04-15T08:48:18.039Z,12.85
2023-04-15T08:50:46.573Z,12.76
2023-04-15T08:53:13.623Z,12.66
2023-04-15T08:55:51.823Z,12.62
2023-04-15T08:58:19.401Z,12.80
2023-04-15T09:00:45.971Z,13.00
2023-04-15T09:03:12.697Z,13.11
2023-04-15T09:05:39.240Z,13.11
2023-04-15T09:08:05.829Z,13.19
2023-04-15T09:10:34.479Z,13.30
2023-04-15T09:13:01.787Z,13.51
2023-04-15T09:15:28.479Z,13.67
2023-04-15T09:17:55.485Z,13.65
2023-04-15T09:20:22.871Z,13.57
2023-04-15T09:22:50.251Z,13.59
2023-04-15T09:25:22.709Z,13.76
2023-04-15T09:27:53.205Z,14.01
2023-04-15T09:30:19.686Z,14.17
2023-04-15T09:32:57.812Z,14.07
2023-04-15T09:35:26.486Z,13.91
2023-04-15T09:37:54.700Z,13.85
2023-04-15T09:40:39.450Z,13.88
2023-04-15T09:43:07.697Z,14.13
2023-04-15T09:45:35.491Z,14.30
2023-04-15T09:48:34.472Z,14.29
2023-04-15T09:51:01.889Z,14.19
2023-04-15T09:53:29.823Z,14.02
2023-04-15T09:56:00.472Z,13.86
2023-04-15T09:58:28.904Z,13.71
2023-04-15T10:00:57.425Z,13.67
2023-04-15T10:03:31.899Z,13.81
2023-04-15T10:06:01.399Z,14.07
2023-04-15T10:08:30.274Z,14.18
2023-04-15T10:10:57.509Z,14.07
2023-04-15T10:13:25.967Z,13.98
2023-04-15T10:15:59.259Z,13.88
2023-04-15T10:18:28.285Z,13.67
2023-04-15T10:20:55.336Z,13.53
2023-04-15T10:23:23.316Z,13.65
2023-04-15T10:25:52.399Z,14.13
2023-04-15T10:28:20.510Z,14.21
2023-04-15T10:30:47.999Z,14.01
2023-04-15T10:33:15.410Z,14.09
2023-04-15T10:35:42.895Z,14.14
2023-04-15T10:38:45.405Z,14.17
2023-04-15T10:41:12.558Z,15.27
2023-04-15T10:43:39.195Z,15.95
2023-04-15T10:46:06.648Z,16.18
2023-04-15T10:48:33.336Z,16.16
2023-04-15T10:51:03.071Z,16.17
2023-04-15T10:53:29.972Z,16.00
2023-04-15T10:55:57.910Z,15.84
2023-04-15T10:58:25.588Z,15.59
2023-04-15T11:00:53.717Z,15.14
2023-04-15T11:03:40.709Z,14.60
2023-04-15T11:06:07.783Z,13.95
2023-04-15T11:08:56.142Z,13.47
2023-04-15T11:11:23.154Z,13.10
2023-04-15T11:13:52.531Z,12.83
2023-04-15T11:16:19.009Z,12.72
2023-04-15T11:18:55.482Z,12.70
2023-04-15T11:21:25.263Z,12.63
2023-04-15T11:23:51.857Z,12.51
2023-04-15T11:26:18.370Z,12.52
2023-04-15T11:28:46.173Z,12.73
2023-04-15T11:31:14.822Z,13.09
2023-04-15T11:33:58.852Z,13.57
2023-04-15T11:36:29.934Z,13.66
2023-04-15T11:38:58.674Z,13.70
2023-04-15T11:41:25.176Z,13.65
2023-04-15T11:43:52.761Z,13.66
2023-04-15T11:46:19.671Z,13.67
2023-04-15T11:48:47.462Z,13.72
2023-04-15T11:51:14.566Z,13.77
2023-04-15T11:53:47.902Z,13.68
2023-04-15T11:56:26.296Z,13.65
2023-04-15T11:58:55.456Z,13.68
2023-04-15T12:01:31.318Z,13.66
2023-04-15T12:03:57.876Z,13.52
2023-04-15T12:06:25.735Z,13.53
2023-04-15T12:08:55.267Z,13.60
2023-04-15T12:11:27.723Z,13.51
2023-04-15T12:13:57.184Z,13.41
2023-04-15T12:16:24.997Z,13.39
2023-04-15T12:18:55.949Z,13.34
2023-04-15T12:21:24.561Z,13.30
2023-04-15T12:23:52.975Z,13.29
2023-04-15T12:26:28.016Z,13.42
2023-04-15T12:29:05.041Z,13.43
2023-04-15T12:31:31.620Z,13.40
2023-04-15T12:33:59.078Z,13.27
2023-04-15T12:36:25.565Z,13.15
2023-04-15T12:38:52.023Z,13.12
2023-04-15T12:41:18.685Z,13.14
2023-04-15T12:43:45.446Z,13.15
2023-04-15T12:46:12.060Z,13.14
2023-04-15T12:48:38.646Z,13.16
2023-04-15T12:51:05.802Z,13.18
2023-04-15T12:53:32.450Z,13.18
2023-04-15T12:55:58.928Z,13.14
2023-04-15T12:58:25.432Z,13.05
2023-04-15T13:00:51.899Z,13.07
2023-04-15T13:03:18.491Z,13.03
2023-04-15T13:05:45.022Z,13.00
2023-04-15T13:08:11.495Z,13.02
2023-04-15T13:10:38.008Z,13.06
2023-04-15T13:13:05.797Z,13.09
2023-04-15T13:15:32.309Z,13.13
2023-04-15T13:17:58.838Z,13.13
2023-04-15T13:20:25.483Z,13.10
2023-04-15T13:22:52.963Z,13.07
2023-04-15T13:25:19.831Z,12.99
2023-04-15T13:27:46.359Z,12.85
2023-04-15T13:30:12.922Z,12.75
2023-04-15T13:32:39.432Z,12.82
2023-04-15T13:35:06.098Z,12.85
2023-04-15T13:37:32.612Z,12.84
2023-04-15T13:39:59.088Z,12.84
2023-04-15T13:42:25.656Z,12.84
2023-04-15T13:44:52.210Z,12.82
2023-04-15T13:47:21.945Z,12.75
2023-04-15T13:49:48.538Z,12.64
2023-04-15T13:52:15.015Z,12.58
2023-04-15T13:54:41.518Z,12.58
2023-04-15T13:57:08.234Z,12.62
2023-04-15T13:59:34.790Z,12.69
2023-04-15T14:02:02.063Z,12.73
2023-04-15T14:04:28.702Z,12.70
2023-04-15T14:06:56.292Z,12.61
2023-04-15T14:09:25.012Z,12.54
2023-04-15T14:11:53.065Z,12.48
2023-04-15T14:14:19.598Z,12.47
2023-04-15T14:16:46.150Z,12.52
2023-04-15T14:19:12.659Z,12.54
2023-04-15T14:21:39.136Z,12.51
2023-04-15T14:24:06.022Z,12.49
2023-04-15T14:26:32.641Z,12.43
2023-04-15T14:28:59.103Z,12.36
2023-04-15T14:31:25.627Z,12.33
2023-04-15T14:33:52.131Z,12.31
2023-04-15T14:36:18.709Z,12.26
2023-04-15T14:38:46.468Z,12.23
2023-04-15T14:41:14.108Z,12.18
2023-04-15T14:43:40.574Z,12.14
2023-04-15T14:46:07.720Z,12.12
2023-04-15T14:48:34.265Z,12.11
2023-04-15T14:51:00.860Z,12.12
2023-04-15T14:53:27.342Z,12.12
2023-04-15T14:55:53.833Z,12.15
2023-04-15T14:58:20.309Z,12.16
2023-04-15T15:00:47.035Z,12.19
2023-04-15T15:03:13.820Z,12.19
2023-04-15T15:05:41.975Z,12.17
2023-04-15T15:08:09.495Z,12.17
2023-04-15T15:10:47.985Z,12.17
2023-04-15T15:13:17.471Z,12.19
2023-04-15T15:15:44.084Z,12.21
2023-04-15T15:18:11.195Z,12.24
2023-04-15T15:20:37.777Z,12.22
2023-04-15T15:23:04.290Z,12.15
2023-04-15T15:25:30.780Z,12.05
2023-04-15T15:27:57.611Z,11.97
2023-04-15T15:30:24.237Z,11.89
2023-04-15T15:32:51.365Z,11.81
2023-04-15T15:35:18.021Z,11.71
2023-04-15T15:37:45.708Z,11.66
2023-04-15T15:40:12.613Z,11.60
2023-04-15T15:42:39.119Z,11.57
2023-04-15T15:45:06.088Z,11.54
2023-04-15T15:47:32.793Z,11.51
2023-04-15T15:50:01.026Z,11.47
2023-04-15T15:52:27.810Z,11.43
2023-04-15T15:54:54.300Z,11.36
2023-04-15T15:57:20.763Z,11.34
2023-04-15T15:59:47.292Z,11.31
2023-04-15T16:02:13.995Z,11.29
2023-04-15T16:04:40.865Z,11.29
2023-04-15T16:07:07.452Z,11.27
2023-04-15T16:09:33.964Z,11.25
2023-04-15T16:12:00.567Z,11.22
2023-04-15T16:14:27.085Z,11.17
2023-04-15T16:16:53.630Z,11.12
2023-04-15T16:19:21.135Z,11.06
2023-04-15T16:21:48.252Z,11.03
2023-04-15T16:24:14.848Z,11.02
2023-04-15T16:26:41.787Z,11.01
2023-04-15T16:29:08.516Z,11.01
2023-04-15T16:31:35.307Z,11.01
2023-04-15T16:34:02.708Z,11.00
2023-04-15T16:36:29.183Z,10.99
2023-04-15T16:38:55.661Z,10.98
2023-04-15T16:41:22.174Z,10.95
2023-04-15T16:43:48.714Z,10.92
2023-04-15T16:46:15.210Z,10.90
2023-04-15T16:48:41.754Z,10.89
2023-04-15T16:51:08.296Z,10.87
2023-04-15T16:53:34.754Z,10.86
2023-04-15T16:56:01.244Z,10.83
2023-04-15T16:58:27.815Z,10.78
2023-04-15T17:00:54.321Z,10.71
2023-04-15T17:03:20.947Z,10.61
2023-04-15T17:05:47.561Z,10.54
2023-04-15T17:08:14.031Z,10.49
2023-04-15T17:10:40.550Z,10.44
2023-04-15T17:13:07.372Z,10.39
2023-04-15T17:15:33.896Z,10.34
2023-04-15T17:18:00.514Z,10.30
2023-04-15T17:20:27.014Z,10.26
2023-04-15T17:22:53.514Z,10.20
2023-04-15T17:25:19.990Z,10.16
2023-04-15T17:27:46.459Z,10.12
2023-04-15T17:30:12.963Z,10.06
2023-04-15T17:32:39.827Z,10.02
2023-04-15T17:35:07.169Z,9.99
2023-04-15T17:37:34.513Z,9.97
2023-04-15T17:40:01.040Z,9.98
2023-04-15T17:42:27.515Z,9.98
2023-04-15T17:44:54.016Z,9.97
2023-04-15T17:47:20.653Z,9.96
2023-04-15T17:49:47.215Z,9.95
2023-04-15T17:52:14.508Z,9.92
2023-04-15T17:54:40.985Z,9.91
2023-04-15T17:57:07.496Z,9.88
2023-04-15T17:59:33.996Z,9.82
2023-04-15T18:02:00.577Z,9.79
2023-04-15T18:04:27.380Z,9.76
2023-04-15T18:06:54.029Z,9.74
2023-04-15T18:09:20.603Z,9.70
2023-04-15T18:11:47.159Z,9.65
2023-04-15T18:14:20.182Z,9.64
2023-04-15T18:16:53.414Z,9.63
2023-04-15T18:19:19.862Z,9.64
2023-04-15T18:21:46.305Z,9.63
2023-04-15T18:24:12.814Z,9.62
2023-04-15T18:26:39.304Z,9.62
2023-04-15T18:29:05.776Z,9.60
2023-04-15T18:31:32.505Z,9.59
2023-04-15T18:33:59.151Z,9.58
2023-04-15T18:36:25.725Z,9.57
2023-04-15T18:38:52.220Z,9.57
2023-04-15T18:41:18.696Z,9.57
2023-04-15T18:43:45.198Z,9.56
2023-04-15T18:46:11.838Z,9.55
2023-04-15T18:48:38.393Z,9.53
2023-04-15T18:51:04.899Z,9.51
2023-04-15T18:53:31.421Z,9.48
2023-04-15T18:55:57.939Z,9.47
2023-04-15T18:58:24.410Z,9.48
2023-04-15T19:00:51.014Z,9.47
2023-04-15T19:03:17.601Z,9.45
2023-04-15T19:05:44.206Z,9.43
2023-04-15T19:08:11.009Z,9.40
2023-04-15T19:10:38.425Z,9.38
2023-04-15T19:13:04.910Z,9.37
2023-04-15T19:15:31.499Z,9.36
2023-04-15T19:17:58.025Z,9.34
2023-04-15T19:20:24.569Z,9.31
2023-04-15T19:22:51.140Z,9.30
2023-04-15T19:25:17.680Z,9.28
2023-04-15T19:27:44.152Z,9.27
2023-04-15T19:30:10.731Z,9.25
2023-04-15T19:32:37.355Z,9.23
2023-04-15T19:35:04.073Z,9.19
2023-04-15T19:37:30.815Z,9.17
2023-04-15T19:39:57.384Z,9.16
2023-04-15T19:42:23.929Z,9.15
2023-04-15T19:44:50.400Z,9.14
2023-04-15T19:47:17.039Z,9.13
2023-04-15T19:49:43.616Z,9.11
2023-04-15T19:52:10.084Z,9.11
2023-04-15T19:54:36.602Z,9.08
2023-04-15T19:57:03.602Z,9.07
2023-04-15T19:59:30.179Z,9.05
2023-04-15T20:01:56.989Z,9.05
2023-04-15T20:04:23.611Z,9.04
2023-04-15T20:06:50.196Z,9.04
2023-04-15T20:09:16.830Z,9.02
2023-04-15T20:12:48.080Z,9.01
2023-04-15T20:14:29.763Z,9.00
2023-04-15T20:16:56.298Z,9.01
2023-04-15T20:19:22.794Z,9.01
2023-04-15T20:21:51.960Z,9.02
2023-04-15T20:24:19.097Z,9.04
2023-04-15T20:26:45.568Z,9.04
2023-04-15T20:29:12.072Z,9.05
2023-04-15T20:31:38.592Z,9.04
2023-04-15T20:34:05.158Z,9.05
2023-04-15T20:36:31.718Z,9.05
2023-04-15T20:38:58.171Z,9.07
2023-04-15T20:41:24.645Z,9.09
2023-04-15T20:43:51.143Z,9.08
2023-04-15T20:46:21.478Z,9.08
2023-04-15T20:48:48.591Z,9.08
2023-04-15T20:51:15.116Z,9.09
2023-04-15T20:53:41.632Z,9.09
2023-04-15T20:56:08.213Z,9.10
2023-04-15T20:58:34.678Z,9.11
2023-04-15T21:01:01.206Z,9.10
2023-04-15T21:03:27.988Z,9.10
2023-04-15T21:05:54.524Z,9.10
2023-04-15T21:08:21.068Z,9.10
2023-04-15T21:10:47.546Z,9.09
2023-04-15T21:13:14.076Z,9.08
2023-04-15T21:15:40.588Z,9.08
2023-04-15T21:18:07.089Z,9.06
2023-04-15T21:20:33.559Z,9.05
2023-04-15T21:23:00.023Z,9.03
2023-04-15T21:25:26.474Z,9.02
2023-04-15T21:27:52.960Z,8.99
2023-04-15T21:30:19.482Z,8.98
2023-04-15T21:32:45.938Z,8.95
2023-04-15T21:35:12.532Z,8.92
2023-04-15T21:37:39.010Z,8.88
2023-04-15T21:40:06.150Z,8.87
2023-04-15T21:42:32.609Z,8.85
2023-04-15T21:44:59.121Z,8.84
2023-04-15T21:47:25.706Z,8.82
2023-04-15T21:49:52.255Z,8.80
2023-04-15T21:52:18.809Z,8.79
2023-04-15T21:54:45.277Z,8.77
2023-04-15T21:57:11.782Z,8.76
2023-04-15T21:59:38.232Z,8.73
2023-04-15T22:02:04.843Z,8.70
2023-04-15T22:04:31.468Z,8.68
2023-04-15T22:06:57.942Z,8.66
2023-04-15T22:09:24.438Z,8.64
2023-04-15T22:11:50.869Z,8.61
2023-04-15T22:14:17.313Z,8.62
2023-04-15T22:16:43.836Z,8.61
2023-04-15T22:19:10.397Z,8.59
2023-04-15T22:21:36.856Z,8.57
2023-04-15T22:24:38.309Z,8.55
2023-04-15T22:26:50.060Z,8.54
2023-04-15T22:29:16.509Z,8.52
2023-04-15T22:31:43.007Z,8.51
2023-04-15T22:34:09.466Z,8.50
2023-04-15T22:36:35.914Z,8.48
2023-04-15T22:39:02.396Z,8.47
2023-04-15T22:41:28.930Z,8.46
2023-04-15T22:43:55.414Z,8.45
2023-04-15T22:46:21.968Z,8.45
2023-04-15T22:48:48.494Z,8.42
2023-04-15T22:51:21.140Z,8.42
2023-04-15T22:53:47.646Z,8.41
2023-04-15T22:56:14.111Z,8.40
2023-04-15T22:58:40.685Z,8.40
2023-04-15T23:01:08.025Z,8.39
2023-04-15T23:03:40.192Z,8.38
2023-04-15T23:06:20.960Z,8.37
2023-04-15T23:08:47.441Z,8.37
2023-04-15T23:11:13.955Z,8.36
2023-04-15T23:13:40.434Z,8.34
2023-04-15T23:16:07.490Z,8.33
2023-04-15T23:18:34.230Z,8.33
2023-04-15T23:21:00.741Z,8.31
2023-04-15T23:23:27.236Z,8.29
2023-04-15T23:25:53.692Z,8.27
2023-04-15T23:28:20.163Z,8.26
2023-04-15T23:30:46.630Z,8.25
2023-04-15T23:33:13.167Z,8.24
2023-04-15T23:35:39.651Z,8.22
2023-04-15T23:38:06.113Z,8.21
2023-04-15T23:40:32.615Z,8.20
2023-04-15T23:42:59.089Z,8.18
2023-04-15T23:45:25.623Z,8.16
2023-04-15T23:47:52.184Z,8.13
2023-04-15T23:50:18.810Z,8.13
2023-04-15T23:52:45.266Z,8.13
2023-04-15T23:55:11.797Z,8.11
2023-04-15T23:57:38.332Z,8.10
